createdAt,value
2023-01-09T00:01:23.493Z,6.95
2023-01-09T00:03:51.256Z,6.95
2023-01-09T00:06:18.646Z,6.92
2023-01-09T00:08:46.117Z,6.90
2023-01-09T00:11:13.533Z,6.94
2023-01-09T00:13:40.906Z,6.93
2023-01-09T00:16:09.648Z,6.99
2023-01-09T00:18:38.355Z,6.98
2023-01-09T00:21:08.021Z,6.98
2023-01-09T00:23:35.553Z,6.98
2023-01-09T00:26:05.120Z,7.00
2023-01-09T00:28:33.160Z,7.09
2023-01-09T00:31:01.357Z,7.00
2023-01-09T00:33:31.113Z,6.92
2023-01-09T00:35:59.817Z,7.01
2023-01-09T00:38:27.217Z,6.93
2023-01-09T00:40:56.419Z,6.87
2023-01-09T00:43:27.409Z,6.87
2023-01-09T00:45:54.878Z,6.78
2023-01-09T00:48:26.966Z,6.72
2023-01-09T00:50:58.504Z,6.74
2023-01-09T00:53:32.301Z,6.70
2023-01-09T00:56:04.505Z,6.74
2023-01-09T00:58:33.430Z,6.64
2023-01-09T01:01:00.970Z,6.68
2023-01-09T01:03:29.585Z,6.69
2023-01-09T01:06:14.643Z,6.67
2023-01-09T01:08:43.350Z,6.61
2023-01-09T01:11:12.369Z,6.64
2023-01-09T01:13:41.141Z,6.64
2023-01-09T01:16:10.798Z,6.52
2023-01-09T01:18:39.005Z,6.50
2023-01-09T01:21:07.667Z,6.52
2023-01-09T01:23:35.504Z,6.50
2023-01-09T01:26:07.171Z,6.51
2023-01-09T01:28:34.915Z,6.56
2023-01-09T01:31:02.518Z,6.53
2023-01-09T01:33:30.851Z,6.52
2023-01-09T01:36:03.092Z,6.54
2023-01-09T01:38:30.889Z,6.49
2023-01-09T01:40:58.305Z,6.63
2023-01-09T01:43:27.164Z,6.53
2023-01-09T01:45:54.629Z,6.59
2023-01-09T01:48:26.494Z,6.61
2023-01-09T01:50:58.988Z,6.67
2023-01-09T01:53:32.631Z,6.58
2023-01-09T01:56:07.419Z,6.64
2023-01-09T01:58:39.701Z,6.64
2023-01-09T02:01:07.433Z,6.67
2023-01-09T02:03:35.919Z,6.60
2023-01-09T02:06:04.877Z,6.64
2023-01-09T02:08:32.277Z,6.70
2023-01-09T02:10:59.812Z,6.68
2023-01-09T02:13:28.427Z,6.65
2023-01-09T02:16:15.880Z,6.64
2023-01-09T02:18:51.916Z,6.69
2023-01-09T02:21:32.011Z,6.66
2023-01-09T02:24:11.694Z,6.66
2023-01-09T02:26:57.067Z,6.68
2023-01-09T02:29:46.922Z,6.76
2023-01-09T02:32:27.015Z,6.76
2023-01-09T02:35:06.965Z,6.73
2023-01-09T02:37:42.790Z,6.73
2023-01-09T02:40:18.844Z,6.82
2023-01-09T02:42:48.082Z,6.84
2023-01-09T02:45:15.952Z,6.95
2023-01-09T02:47:46.390Z,6.96
2023-01-09T02:50:20.837Z,6.93
2023-01-09T02:53:25.613Z,7.00
2023-01-09T02:56:04.127Z,6.98
2023-01-09T02:58:50.349Z,7.00
2023-01-09T03:01:28.044Z,6.94
2023-01-09T03:04:05.722Z,6.98
2023-01-09T03:06:41.264Z,6.86
2023-01-09T03:09:15.621Z,6.88
2023-01-09T03:11:48.385Z,6.87
2023-01-09T03:14:19.321Z,6.80
2023-01-09T03:16:49.057Z,6.85
2023-01-09T03:19:20.753Z,6.88
2023-01-09T03:21:48.697Z,6.84
2023-01-09T03:24:16.643Z,6.83
2023-01-09T03:29:37.330Z,6.71
2023-01-09T03:32:04.888Z,6.64
2023-01-09T03:34:33.645Z,6.62
2023-01-09T03:37:01.695Z,6.63
2023-01-09T03:39:29.056Z,6.60
2023-01-09T03:41:56.448Z,6.57
2023-01-09T03:44:23.857Z,6.57
2023-01-09T03:46:51.229Z,6.61
2023-01-09T03:49:19.079Z,6.61
2023-01-09T03:51:47.749Z,6.57
2023-01-09T03:54:15.117Z,6.61
2023-01-09T03:56:42.468Z,6.66
2023-01-09T03:59:09.822Z,6.63
2023-01-09T04:01:37.337Z,6.51
2023-01-09T04:04:04.957Z,6.64
2023-01-09T04:06:32.331Z,6.63
2023-01-09T04:09:00.997Z,6.57
2023-01-09T04:11:28.383Z,6.60
2023-01-09T04:13:55.776Z,6.61
2023-01-09T04:16:23.173Z,6.59
2023-01-09T04:18:50.549Z,6.63
2023-01-09T04:21:17.965Z,6.58
2023-01-09T04:23:45.614Z,6.54
2023-01-09T04:26:14.352Z,6.61
2023-01-09T04:28:41.714Z,6.62
2023-01-09T04:31:09.196Z,6.62
2023-01-09T04:33:36.633Z,6.62
2023-01-09T04:36:04.367Z,6.63
2023-01-09T04:38:31.806Z,6.64
2023-01-09T04:40:59.378Z,6.65
2023-01-09T04:43:28.118Z,6.53
2023-01-09T04:45:55.574Z,6.59
2023-01-09T04:48:22.971Z,6.65
2023-01-09T04:50:50.333Z,6.57
2023-01-09T04:53:17.705Z,6.63
2023-01-09T04:55:45.075Z,6.63
2023-01-09T04:58:12.450Z,6.64
2023-01-09T05:00:41.141Z,6.62
2023-01-09T05:03:08.494Z,6.69
2023-01-09T05:05:35.870Z,6.72
2023-01-09T05:08:03.228Z,6.68
2023-01-09T05:10:30.614Z,6.66
2023-01-09T05:12:57.975Z,6.66
2023-01-09T05:15:28.142Z,6.60
2023-01-09T05:17:56.832Z,6.55
2023-01-09T05:20:24.200Z,6.69
2023-01-09T05:22:51.610Z,6.60
2023-01-09T05:25:18.950Z,6.68
2023-01-09T05:27:47.014Z,6.66
2023-01-09T05:30:18.105Z,6.66
2023-01-09T05:32:45.840Z,6.66
2023-01-09T05:35:14.670Z,6.63
2023-01-09T05:37:42.085Z,6.68
2023-01-09T05:40:11.329Z,6.67
2023-01-09T05:42:38.737Z,6.64
2023-01-09T05:45:07.406Z,6.56
2023-01-09T05:47:34.805Z,6.58
2023-01-09T05:50:02.185Z,6.54
2023-01-09T05:52:31.001Z,6.55
2023-01-09T05:54:58.397Z,6.50
2023-01-09T05:57:25.810Z,6.49
2023-01-09T05:59:53.169Z,6.45
2023-01-09T06:02:20.626Z,6.28
2023-01-09T06:04:48.485Z,6.34
2023-01-09T06:07:19.972Z,6.42
2023-01-09T06:09:50.266Z,6.39
2023-01-09T06:12:17.702Z,6.37
2023-01-09T06:14:45.051Z,6.43
2023-01-09T06:17:12.421Z,6.35
2023-01-09T06:19:39.798Z,6.48
2023-01-09T06:22:07.207Z,6.50
2023-01-09T06:24:34.587Z,6.50
2023-01-09T06:27:03.293Z,6.56
2023-01-09T06:29:30.835Z,6.57
2023-01-09T06:31:58.223Z,6.58
2023-01-09T06:34:26.052Z,6.61
2023-01-09T06:36:53.451Z,6.65
2023-01-09T06:39:21.064Z,6.62
2023-01-09T06:41:48.835Z,6.66
2023-01-09T06:44:17.603Z,6.70
2023-01-09T06:46:45.039Z,6.63
2023-01-09T06:49:12.428Z,6.78
2023-01-09T06:51:39.837Z,6.76
2023-01-09T06:54:07.298Z,6.76
2023-01-09T06:56:34.654Z,6.67
2023-01-09T06:59:02.193Z,6.68
2023-01-09T07:01:31.008Z,6.77
2023-01-09T07:03:58.569Z,6.76
2023-01-09T07:06:26.489Z,6.68
2023-01-09T07:08:54.062Z,6.70
2023-01-09T07:11:21.447Z,6.77
2023-01-09T07:13:49.015Z,6.74
2023-01-09T07:16:16.475Z,6.65
2023-01-09T07:18:45.268Z,6.65
2023-01-09T07:21:12.765Z,6.67
2023-01-09T07:23:40.315Z,6.73
2023-01-09T07:26:07.704Z,6.77
2023-01-09T07:28:35.109Z,6.76
2023-01-09T07:31:04.507Z,6.73
2023-01-09T07:33:32.157Z,6.71
2023-01-09T07:36:00.914Z,6.62
2023-01-09T07:38:28.370Z,6.67
2023-01-09T07:40:55.937Z,6.66
2023-01-09T07:43:23.372Z,6.65
2023-01-09T07:45:50.848Z,6.65
2023-01-09T07:48:18.230Z,6.68
2023-01-09T07:50:45.636Z,6.71
2023-01-09T07:53:14.542Z,6.79
2023-01-09T07:55:43.352Z,6.77
2023-01-09T07:58:10.826Z,6.76
2023-01-09T08:00:38.226Z,6.79
2023-01-09T08:03:06.308Z,6.84
2023-01-09T08:05:34.276Z,6.85
2023-01-09T08:08:01.962Z,6.87
2023-01-09T08:10:30.737Z,6.93
2023-01-09T08:12:58.147Z,6.95
2023-01-09T08:15:25.581Z,6.96
2023-01-09T08:17:53.009Z,7.07
2023-01-09T08:20:20.571Z,7.23
2023-01-09T08:22:50.544Z,7.13
2023-01-09T08:25:18.658Z,7.23
2023-01-09T08:27:47.809Z,7.26
2023-01-09T08:30:15.881Z,7.27
2023-01-09T08:32:43.256Z,7.25
2023-01-09T08:38:02.192Z,7.39
2023-01-09T08:40:33.345Z,7.34
2023-01-09T08:43:19.853Z,7.44
2023-01-09T08:46:05.715Z,7.45
2023-01-09T08:48:33.203Z,7.50
2023-01-09T08:51:00.596Z,7.41
2023-01-09T08:53:28.476Z,7.55
2023-01-09T08:55:56.224Z,7.51
2023-01-09T08:58:24.911Z,7.57
2023-01-09T09:00:52.342Z,7.63
2023-01-09T09:03:21.658Z,7.72
2023-01-09T09:05:49.149Z,7.79
2023-01-09T09:08:16.745Z,7.71
2023-01-09T09:10:44.302Z,7.82
2023-01-09T09:13:11.735Z,7.86
2023-01-09T09:15:40.593Z,7.98
2023-01-09T09:18:09.251Z,8.06
2023-01-09T09:20:38.605Z,8.13
2023-01-09T09:23:08.138Z,8.20
2023-01-09T09:25:38.169Z,8.27
2023-01-09T09:28:05.900Z,8.32
2023-01-09T09:30:33.660Z,8.36
2023-01-09T09:33:03.735Z,8.38
2023-01-09T09:35:32.397Z,8.50
2023-01-09T09:38:04.645Z,8.65
2023-01-09T09:40:47.983Z,8.92
2023-01-09T09:43:55.558Z,9.13
2023-01-09T09:46:29.092Z,9.23
2023-01-09T09:49:03.156Z,9.38
2023-01-09T09:51:44.784Z,9.38
2023-01-09T09:54:15.952Z,9.50
2023-01-09T09:56:50.466Z,9.53
2023-01-09T09:59:21.809Z,9.64
2023-01-09T10:01:55.963Z,9.69
2023-01-09T10:04:28.444Z,9.75
2023-01-09T10:06:59.689Z,9.78
2023-01-09T10:09:40.058Z,9.87
2023-01-09T10:12:28.443Z,9.82
2023-01-09T10:14:57.905Z,9.78
2023-01-09T10:17:55.146Z,9.79
2023-01-09T10:20:40.537Z,9.89
2023-01-09T10:23:25.263Z,9.91
2023-01-09T10:25:57.658Z,9.98
2023-01-09T10:28:49.779Z,9.99
2023-01-09T10:31:28.511Z,9.91
2023-01-09T10:34:09.739Z,9.85
2023-01-09T10:37:00.154Z,9.90
2023-01-09T10:39:35.557Z,9.78
2023-01-09T10:42:11.089Z,9.75
2023-01-09T10:44:47.050Z,9.64
2023-01-09T10:47:18.095Z,9.44
2023-01-09T10:49:48.712Z,9.20
2023-01-09T10:52:20.481Z,9.09
2023-01-09T10:54:55.782Z,8.94
2023-01-09T10:57:42.049Z,8.75
2023-01-09T11:00:17.005Z,8.76
2023-01-09T11:02:44.635Z,8.74
2023-01-09T11:05:16.497Z,8.60
2023-01-09T11:07:47.340Z,8.85
2023-01-09T11:10:16.253Z,8.78
2023-01-09T11:12:43.750Z,8.98
2023-01-09T11:15:28.996Z,9.00
2023-01-09T11:18:18.121Z,9.15
2023-01-09T11:20:46.046Z,9.30
2023-01-09T11:23:33.152Z,9.29
2023-01-09T11:26:02.779Z,9.26
2023-01-09T11:28:30.435Z,9.34
2023-01-09T11:31:03.117Z,9.36
2023-01-09T11:33:35.271Z,9.37
2023-01-09T11:36:07.926Z,9.33
2023-01-09T11:38:50.053Z,9.44
2023-01-09T11:41:20.183Z,9.46
2023-01-09T11:43:50.260Z,9.46
2023-01-09T11:46:35.589Z,9.34
2023-01-09T11:49:05.212Z,9.40
2023-01-09T11:51:34.165Z,9.43
2023-01-09T11:54:17.350Z,9.56
2023-01-09T11:56:45.683Z,9.59
2023-01-09T11:59:15.004Z,9.62
2023-01-09T12:02:13.050Z,9.53
2023-01-09T12:04:46.144Z,9.64
2023-01-09T12:07:38.396Z,9.53
2023-01-09T12:10:24.372Z,9.73
2023-01-09T12:13:02.246Z,9.80
2023-01-09T12:15:34.240Z,9.96
2023-01-09T12:18:26.893Z,9.91
2023-01-09T12:21:06.202Z,9.88
2023-01-09T12:23:48.043Z,9.86
2023-01-09T12:26:21.843Z,9.69
2023-01-09T12:29:06.041Z,9.63
2023-01-09T12:31:49.614Z,9.72
2023-01-09T12:34:35.602Z,9.73
2023-01-09T12:37:13.916Z,9.80
2023-01-09T12:39:52.684Z,9.75
2023-01-09T12:42:35.033Z,9.68
2023-01-09T12:45:10.045Z,9.64
2023-01-09T12:47:46.054Z,9.64
2023-01-09T12:50:32.547Z,9.64
2023-01-09T12:53:09.235Z,9.57
2023-01-09T12:55:40.733Z,9.48
2023-01-09T12:58:19.664Z,9.46
2023-01-09T13:00:51.396Z,9.56
2023-01-09T13:03:24.724Z,9.46
2023-01-09T13:05:54.256Z,9.42
2023-01-09T13:08:27.207Z,9.43
2023-01-09T13:11:01.590Z,9.48
2023-01-09T13:13:43.176Z,9.52
2023-01-09T13:16:15.956Z,9.57
2023-01-09T13:18:48.208Z,9.74
2023-01-09T13:21:16.409Z,9.61
2023-01-09T13:23:50.414Z,9.65
2023-01-09T13:26:22.562Z,9.58
2023-01-09T13:28:54.894Z,9.52
2023-01-09T13:31:40.379Z,9.53
2023-01-09T13:34:21.511Z,9.46
2023-01-09T13:36:52.743Z,9.51
2023-01-09T13:39:22.589Z,9.41
2023-01-09T13:42:12.531Z,9.45
2023-01-09T13:44:41.722Z,9.47
2023-01-09T13:47:18.358Z,9.49
2023-01-09T13:50:01.620Z,9.56
2023-01-09T13:52:31.434Z,9.42
2023-01-09T13:55:24.586Z,9.50
2023-01-09T13:58:22.513Z,9.50
2023-01-09T14:00:55.797Z,9.49
2023-01-09T14:03:26.864Z,9.50
2023-01-09T14:06:18.454Z,9.36
2023-01-09T14:08:48.708Z,9.37
2023-01-09T14:11:27.314Z,9.28
2023-01-09T14:14:18.817Z,9.35
2023-01-09T14:16:47.918Z,9.37
2023-01-09T14:19:29.979Z,9.33
2023-01-09T14:21:58.768Z,9.25
2023-01-09T14:24:29.789Z,9.31
2023-01-09T14:26:59.514Z,9.25
2023-01-09T14:29:44.527Z,9.27
2023-01-09T14:32:45.936Z,9.26
2023-01-09T14:35:23.482Z,9.31
2023-01-09T14:38:06.332Z,9.13
2023-01-09T14:40:34.860Z,9.27
2023-01-09T14:43:13.767Z,9.26
2023-01-09T14:45:47.968Z,9.29
2023-01-09T14:48:18.332Z,9.25
2023-01-09T14:50:51.013Z,9.20
2023-01-09T14:53:22.058Z,9.21
2023-01-09T14:55:53.062Z,9.23
2023-01-09T14:58:23.566Z,9.34
2023-01-09T15:00:56.859Z,9.30
2023-01-09T15:03:30.773Z,9.20
2023-01-09T15:05:58.622Z,9.29
2023-01-09T15:08:28.670Z,9.18
2023-01-09T15:10:58.845Z,9.15
2023-01-09T15:13:31.778Z,9.13
2023-01-09T15:16:01.052Z,9.11
2023-01-09T15:18:32.492Z,9.19
2023-01-09T15:21:02.888Z,9.14
2023-01-09T15:23:32.123Z,9.08
2023-01-09T15:26:13.505Z,8.95
2023-01-09T15:28:43.349Z,8.94
2023-01-09T15:31:15.088Z,9.03
2023-01-09T15:33:46.392Z,9.02
2023-01-09T15:36:18.581Z,8.97
2023-01-09T15:38:47.516Z,8.99
2023-01-09T15:41:35.335Z,8.88
2023-01-09T15:44:03.896Z,8.73
2023-01-09T15:46:31.379Z,8.56
2023-01-09T15:49:01.125Z,8.46
2023-01-09T15:51:28.779Z,8.19
2023-01-09T15:53:58.439Z,8.36
2023-01-09T15:56:30.514Z,8.38
2023-01-09T15:58:59.613Z,8.33
2023-01-09T16:01:30.681Z,8.17
2023-01-09T16:04:06.686Z,8.20
2023-01-09T16:06:37.151Z,8.05
2023-01-09T16:09:06.025Z,8.08
2023-01-09T16:11:35.979Z,8.05
2023-01-09T16:14:13.573Z,8.08
2023-01-09T16:16:42.129Z,7.90
2023-01-09T16:19:33.243Z,7.82
2023-01-09T16:22:02.187Z,7.76
2023-01-09T16:24:38.991Z,7.68
2023-01-09T16:27:24.057Z,7.60
2023-01-09T16:29:57.401Z,7.52
2023-01-09T16:32:28.401Z,7.53
2023-01-09T16:34:58.864Z,7.42
2023-01-09T16:37:27.076Z,7.41
2023-01-09T16:40:25.721Z,7.28
2023-01-09T16:43:00.735Z,7.28
2023-01-09T16:45:29.589Z,7.26
2023-01-09T16:47:58.002Z,7.08
2023-01-09T16:50:26.986Z,6.94
2023-01-09T16:52:54.438Z,6.94
2023-01-09T16:55:21.805Z,6.85
2023-01-09T16:57:49.379Z,6.75
2023-01-09T17:00:19.669Z,6.76
2023-01-09T17:02:48.007Z,6.85
2023-01-09T17:05:15.487Z,6.69
2023-01-09T17:07:44.250Z,6.69
2023-01-09T17:10:20.404Z,6.64
2023-01-09T17:12:47.791Z,6.56
2023-01-09T17:15:15.295Z,6.66
2023-01-09T17:17:43.112Z,6.46
2023-01-09T17:20:21.056Z,6.59
2023-01-09T17:22:49.617Z,6.64
2023-01-09T17:25:35.182Z,6.56
2023-01-09T17:28:20.890Z,6.51
2023-01-09T17:30:48.268Z,6.61
2023-01-09T17:33:16.843Z,6.46
2023-01-09T17:35:45.086Z,6.45
2023-01-09T17:38:15.539Z,6.54
2023-01-09T17:40:43.861Z,6.40
2023-01-09T17:43:15.076Z,6.33
2023-01-09T17:45:42.805Z,6.33
2023-01-09T17:48:16.134Z,6.33
2023-01-09T17:50:43.560Z,6.29
2023-01-09T17:53:10.969Z,6.27
2023-01-09T17:55:40.818Z,6.24
2023-01-09T17:58:08.545Z,6.13
2023-01-09T18:00:37.497Z,6.12
2023-01-09T18:03:07.435Z,6.21
2023-01-09T18:05:37.078Z,6.28
2023-01-09T18:08:05.692Z,6.33
2023-01-09T18:10:33.140Z,6.41
2023-01-09T18:13:01.846Z,6.35
2023-01-09T18:15:29.279Z,6.45
2023-01-09T18:17:56.673Z,6.43
2023-01-09T18:20:24.843Z,6.56
2023-01-09T18:22:55.934Z,6.66
2023-01-09T18:25:23.316Z,6.66
2023-01-09T18:27:51.766Z,6.76
2023-01-09T18:30:20.589Z,6.78
2023-01-09T18:32:47.939Z,6.86
2023-01-09T18:35:15.311Z,6.92
2023-01-09T18:37:42.729Z,6.96
2023-01-09T18:40:11.246Z,7.01
2023-01-09T18:42:40.235Z,6.98
2023-01-09T18:45:08.760Z,7.03
2023-01-09T18:47:37.438Z,7.02
2023-01-09T18:50:05.376Z,7.04
2023-01-09T18:52:32.831Z,7.08
2023-01-09T18:55:00.181Z,7.14
2023-01-09T18:57:27.999Z,7.14
2023-01-09T18:59:55.379Z,7.10
2023-01-09T19:02:25.359Z,7.18
2023-01-09T19:04:54.277Z,7.21
2023-01-09T19:07:21.727Z,7.12
2023-01-09T19:09:49.194Z,7.09
2023-01-09T19:12:16.559Z,7.18
2023-01-09T19:14:44.040Z,7.10
2023-01-09T19:17:11.402Z,7.20
2023-01-09T19:19:38.825Z,7.19
2023-01-09T19:22:07.712Z,7.29
2023-01-09T19:24:35.358Z,7.33
2023-01-09T19:27:02.799Z,7.29
2023-01-09T19:29:30.234Z,7.35
2023-01-09T19:31:58.705Z,7.45
2023-01-09T19:34:26.346Z,7.43
2023-01-09T19:36:53.857Z,7.49
2023-01-09T19:39:22.736Z,7.45
2023-01-09T19:41:50.085Z,7.48
2023-01-09T19:44:18.929Z,7.46
2023-01-09T19:46:46.328Z,7.41
2023-01-09T19:49:13.679Z,7.28
2023-01-09T19:51:42.315Z,7.37
2023-01-09T19:54:11.254Z,7.47
2023-01-09T19:56:43.813Z,7.43
2023-01-09T19:59:13.457Z,7.41
2023-01-09T20:01:42.488Z,7.41
2023-01-09T20:04:14.931Z,7.40
2023-01-09T20:06:43.745Z,7.49
2023-01-09T20:09:12.241Z,7.55
2023-01-09T20:11:41.839Z,7.55
2023-01-09T20:14:12.014Z,7.52
2023-01-09T20:16:39.442Z,7.56
2023-01-09T20:19:08.561Z,7.47
2023-01-09T20:21:36.896Z,7.38
2023-01-09T20:24:06.115Z,7.39
2023-01-09T20:26:34.938Z,7.43
2023-01-09T20:29:04.165Z,7.36
2023-01-09T20:31:32.862Z,7.37
2023-01-09T20:34:00.602Z,7.38
2023-01-09T20:36:30.068Z,7.35
2023-01-09T20:38:58.982Z,7.44
2023-01-09T20:41:26.568Z,7.42
2023-01-09T20:43:55.903Z,7.43
2023-01-09T20:46:27.805Z,7.50
2023-01-09T20:48:56.513Z,7.41
2023-01-09T20:51:23.939Z,7.43
2023-01-09T20:53:55.566Z,7.53
2023-01-09T20:56:24.106Z,7.41
2023-01-09T20:58:51.802Z,7.55
2023-01-09T21:01:20.112Z,7.42
2023-01-09T21:03:49.435Z,7.41
2023-01-09T21:06:18.180Z,7.35
2023-01-09T21:08:47.015Z,7.35
2023-01-09T21:11:15.641Z,7.31
2023-01-09T21:13:43.532Z,7.26
2023-01-09T21:16:13.492Z,7.25
2023-01-09T21:18:42.344Z,7.44
2023-01-09T21:21:13.309Z,7.42
2023-01-09T21:23:42.234Z,7.31
2023-01-09T21:26:10.863Z,7.31
2023-01-09T21:28:45.752Z,7.32
2023-01-09T21:31:13.632Z,7.39
2023-01-09T21:33:41.252Z,7.36
2023-01-09T21:36:11.103Z,7.36
2023-01-09T21:38:38.758Z,7.42
2023-01-09T21:41:24.027Z,7.31
2023-01-09T21:44:09.208Z,7.29
2023-01-09T21:46:57.391Z,7.28
2023-01-09T21:49:26.174Z,7.29
2023-01-09T21:51:56.038Z,7.42
2023-01-09T21:54:24.400Z,7.55
2023-01-09T21:56:52.036Z,7.60
2023-01-09T21:59:19.745Z,7.44
2023-01-09T22:01:49.264Z,7.48
2023-01-09T22:04:18.073Z,7.50
2023-01-09T22:06:45.770Z,7.36
2023-01-09T22:09:15.131Z,7.38
2023-01-09T22:11:43.728Z,7.38
2023-01-09T22:14:13.138Z,7.37
2023-01-09T22:16:40.514Z,7.34
2023-01-09T22:19:07.890Z,7.34
2023-01-09T22:21:35.302Z,7.31
2023-01-09T22:24:02.796Z,7.37
2023-01-09T22:26:31.888Z,7.34
2023-01-09T22:28:59.306Z,7.44
2023-01-09T22:31:28.495Z,7.45
2023-01-09T22:33:58.436Z,7.31
2023-01-09T22:36:26.991Z,7.35
2023-01-09T22:38:54.978Z,7.37
2023-01-09T22:41:22.970Z,7.26
2023-01-09T22:43:51.599Z,7.23
2023-01-09T22:46:19.304Z,7.30
2023-01-09T22:48:47.936Z,7.40
2023-01-09T22:51:17.448Z,7.39
2023-01-09T22:53:45.518Z,7.33
2023-01-09T22:56:13.673Z,7.35
2023-01-09T22:58:41.258Z,7.33
2023-01-09T23:01:10.800Z,7.24
2023-01-09T23:03:38.189Z,7.42
2023-01-09T23:06:07.909Z,7.49
2023-01-09T23:08:35.963Z,7.51
2023-01-09T23:11:04.826Z,7.31
2023-01-09T23:13:32.380Z,7.35
2023-01-09T23:15:59.789Z,7.09
2023-01-09T23:18:28.911Z,7.17
2023-01-09T23:20:58.395Z,7.11
2023-01-09T23:23:27.401Z,7.26
2023-01-09T23:25:59.484Z,7.14
2023-01-09T23:28:27.699Z,7.23
2023-01-09T23:30:55.184Z,7.24
2023-01-09T23:33:22.720Z,7.40
2023-01-09T23:35:51.452Z,7.29
2023-01-09T23:38:18.821Z,7.35
2023-01-09T23:40:46.199Z,7.24
2023-01-09T23:43:14.221Z,7.27
2023-01-09T23:45:42.335Z,7.40
2023-01-09T23:48:11.319Z,7.32
2023-01-09T23:50:38.964Z,7.42
2023-01-09T23:53:07.642Z,7.38
2023-01-09T23:55:35.988Z,7.32
2023-01-09T23:58:03.936Z,7.35
